Time;durP1;ratioP1;P1;durP2;ratioP2;P2;SDS_P1;SDS_P2;PMS_P1;PMS_P2;Temp;Humidity;BMP_temperature;BMP_pressure;BME280_temperature;BME280_humidity;BME280_pressure;Samples;Min_cycle;Max_cycle;Signal;HPM_P1;HPM_P2
2023/01/21 00:01:49;;;;;;;26.42;10.20;;;1.70;99.90;;;;;;5113221;28;20055;-72
2023/01/21 00:04:14;;;;;;;26.67;11.05;;;1.70;99.90;;;;;;5112161;28;20073;-72
2023/01/21 00:06:40;;;;;;;22.45;9.45;;;1.80;99.90;;;;;;5115902;28;20031;-72
2023/01/21 00:09:07;;;;;;;25.95;10.77;;;1.80;99.90;;;;;;5117294;28;20054;-72
2023/01/21 00:11:32;;;;;;;24.70;10.48;;;1.80;99.90;;;;;;5117652;28;20108;-72
2023/01/21 00:13:58;;;;;;;25.52;10.65;;;1.80;99.90;;;;;;5116388;28;20114;-72
2023/01/21 00:16:24;;;;;;;22.35;10.38;;;1.70;99.90;;;;;;5116318;28;20091;-72
2023/01/21 00:18:49;;;;;;;24.55;9.48;;;1.70;99.90;;;;;;5116477;28;20027;-72
2023/01/21 00:21:15;;;;;;;20.35;9.32;;;1.70;99.90;;;;;;5116302;28;20371;-72
2023/01/21 00:23:40;;;;;;;20.40;8.98;;;1.70;99.90;;;;;;5116182;28;20398;-72
2023/01/21 00:26:08;;;;;;;21.25;9.30;;;1.70;99.90;;;;;;5117337;28;20038;-72
2023/01/21 00:28:36;;;;;;;22.98;9.63;;;1.70;99.90;;;;;;5116432;28;20477;-72
2023/01/21 00:31:04;;;;;;;22.55;9.60;;;1.60;99.90;;;;;;5116101;28;20023;-72
2023/01/21 00:33:30;;;;;;;23.63;9.60;;;1.50;99.90;;;;;;5115869;28;20497;-72
2023/01/21 00:36:01;;;;;;;21.20;8.48;;;1.40;99.90;;;;;;5117489;28;20035;-72
2023/01/21 00:38:28;;;;;;;22.27;8.90;;;1.40;99.90;;;;;;5116001;28;20030;-72
2023/01/21 00:40:59;;;;;;;21.40;8.75;;;1.40;99.90;;;;;;5117901;28;20024;-73
2023/01/21 00:43:24;;;;;;;23.25;9.75;;;1.40;99.90;;;;;;5115911;28;20492;-73
2023/01/21 00:45:50;;;;;;;23.00;9.35;;;1.50;99.90;;;;;;5115973;28;20118;-73
2023/01/21 00:48:15;;;;;;;24.05;9.63;;;1.40;99.90;;;;;;5116353;28;20030;-70
2023/01/21 00:50:41;;;;;;;21.38;9.40;;;1.30;99.90;;;;;;5115685;28;20036;-70
2023/01/21 00:53:06;;;;;;;24.15;10.43;;;1.30;99.90;;;;;;5115676;28;20020;-70
2023/01/21 00:55:32;;;;;;;25.10;9.70;;;1.20;99.90;;;;;;5117139;28;20085;-69
2023/01/21 00:57:57;;;;;;;24.83;9.80;;;1.10;99.90;;;;;;5116603;28;20047;-70
2023/01/21 01:00:23;;;;;;;19.17;8.25;;;1.20;99.90;;;;;;5116967;28;20019;-69
2023/01/21 01:02:48;;;;;;;19.98;8.77;;;1.10;99.90;;;;;;5116695;28;20028;-69
2023/01/21 01:05:14;;;;;;;24.13;9.23;;;1.10;99.90;;;;;;5115809;28;20027;-69
2023/01/21 01:07:42;;;;;;;24.08;8.77;;;1.10;99.90;;;;;;5115303;28;20027;-70
2023/01/21 01:10:08;;;;;;;22.65;9.93;;;1.10;99.90;;;;;;5115527;28;20391;-70
2023/01/21 01:12:34;;;;;;;22.67;9.27;;;1.20;99.90;;;;;;5116569;28;20030;-69
2023/01/21 01:15:00;;;;;;;22.13;8.93;;;1.20;99.90;;;;;;5116487;28;20024;-69
2023/01/21 01:17:25;;;;;;;19.38;8.13;;;1.00;99.90;;;;;;5114811;28;20032;-70
2023/01/21 01:19:51;;;;;;;19.92;8.43;;;1.00;99.90;;;;;;5114955;28;20027;-70
2023/01/21 01:22:16;;;;;;;21.65;9.60;;;1.00;99.90;;;;;;5110843;22;20037;-73
2023/01/21 01:24:42;;;;;;;27.45;9.90;;;0.80;99.90;;;;;;5056160;28;20074;-73
2023/01/21 01:27:07;;;;;;;27.80;9.20;;;0.80;99.90;;;;;;5071129;28;20029;-73
2023/01/21 01:29:33;;;;;;;25.95;9.25;;;0.80;99.90;;;;;;5055465;28;20060;-73
2023/01/21 01:31:58;;;;;;;18.42;9.05;;;1.00;99.90;;;;;;5054978;28;20104;-73
2023/01/21 01:34:24;;;;;;;23.50;8.88;;;1.10;99.90;;;;;;5070829;28;20029;-73
2023/01/21 01:36:49;;;;;;;23.50;8.70;;;1.00;99.90;;;;;;5070731;28;20013;-72
2023/01/21 01:39:15;;;;;;;21.58;9.60;;;0.90;99.90;;;;;;5055294;28;20036;-73
2023/01/21 01:41:40;;;;;;;26.02;9.48;;;0.80;99.90;;;;;;5055470;28;20025;-73
2023/01/21 01:44:45;;;;;;;24.27;8.63;;;0.80;99.90;;;;;;5070497;28;20028;-72
2023/01/21 01:47:10;;;;;;;22.75;9.07;;;0.80;99.90;;;;;;5053882;28;20027;-72
2023/01/21 01:49:36;;;;;;;24.38;8.65;;;0.80;99.90;;;;;;5055316;28;20029;-72
2023/01/21 01:52:05;;;;;;;24.27;9.20;;;0.80;99.90;;;;;;5070890;28;20020;-72
2023/01/21 01:54:35;;;;;;;25.00;8.77;;;0.70;99.90;;;;;;5053919;28;20025;-72
2023/01/21 01:57:03;;;;;;;21.38;9.45;;;0.80;99.90;;;;;;5070554;28;20063;-72
2023/01/21 01:59:30;;;;;;;22.70;8.68;;;0.80;99.90;;;;;;5054183;28;20032;-72
2023/01/21 02:02:00;;;;;;;24.90;9.68;;;0.90;99.90;;;;;;5070588;28;20125;-72
2023/01/21 02:04:30;;;;;;;22.67;9.20;;;0.90;99.90;;;;;;5070228;28;20025;-72
2023/01/21 02:06:56;;;;;;;18.13;7.80;;;0.90;99.90;;;;;;5070176;28;20025;-72
2023/01/21 02:09:28;;;;;;;18.48;8.48;;;0.90;99.90;;;;;;5053390;28;20116;-72
2023/01/21 02:11:58;;;;;;;21.67;9.18;;;0.90;99.90;;;;;;5070121;28;20024;-72
2023/01/21 02:14:24;;;;;;;21.55;9.52;;;0.90;99.90;;;;;;5054669;28;20044;-72
2023/01/21 02:16:58;;;;;;;17.98;7.78;;;0.90;99.90;;;;;;5054234;28;20021;-72
2023/01/21 02:20:00;;;;;;;25.45;9.05;;;0.90;99.90;;;;;;5054728;28;20033;-72
2023/01/21 02:22:28;;;;;;;19.27;8.13;;;1.00;99.90;;;;;;5054837;28;20114;-72
2023/01/21 02:25:26;;;;;;;20.52;9.68;;;1.00;99.90;;;;;;5054551;28;20162;-72
2023/01/21 02:28:25;;;;;;;23.90;8.88;;;1.00;99.90;;;;;;5054543;28;20061;-72
2023/01/21 02:31:06;;;;;;;26.02;9.60;;;0.90;99.90;;;;;;5053944;28;20111;-72
2023/01/21 02:33:40;;;;;;;22.92;9.52;;;0.80;99.90;;;;;;5070880;28;20039;-70
2023/01/21 02:36:42;;;;;;;22.58;9.95;;;0.80;99.90;;;;;;5053381;28;20021;-70
2023/01/21 02:39:26;;;;;;;29.92;10.50;;;0.70;99.90;;;;;;5054218;28;20047;-70
2023/01/21 02:41:59;;;;;;;28.38;10.15;;;0.50;99.90;;;;;;5070668;28;20029;-70
2023/01/21 02:44:41;;;;;;;30.83;11.23;;;0.60;99.90;;;;;;5069908;28;20036;-70
2023/01/21 02:47:21;;;;;;;26.80;10.90;;;0.60;99.90;;;;;;5054871;28;20024;-70
2023/01/21 02:50:14;;;;;;;28.85;10.98;;;0.50;99.90;;;;;;5069733;28;20025;-70
2023/01/21 02:52:40;;;;;;;26.38;9.82;;;0.50;99.90;;;;;;5047581;28;20025;-70
2023/01/21 02:55:12;;;;;;;25.92;10.90;;;0.50;99.90;;;;;;5054120;28;20021;-70
2023/01/21 02:57:43;;;;;;;30.73;11.15;;;0.50;99.90;;;;;;5054276;28;20027;-70
2023/01/21 03:00:41;;;;;;;22.88;9.05;;;0.50;99.90;;;;;;5069753;28;20029;-70
2023/01/21 03:03:46;;;;;;;30.23;11.55;;;0.50;99.90;;;;;;5058855;28;20039;-74
2023/01/21 03:06:12;;;;;;;29.08;10.85;;;0.50;99.90;;;;;;5046899;28;20087;-75
2023/01/21 03:08:50;;;;;;;28.42;11.40;;;0.50;99.90;;;;;;5069757;28;20036;-75
2023/01/21 03:11:19;;;;;;;26.30;11.38;;;0.60;99.90;;;;;;5069411;28;20024;-74
2023/01/21 03:17:14;;;;;;;22.48;8.98;;;0.70;99.90;;;;;;5058577;28;20039;-75
2023/01/21 03:19:56;;;;;;;26.20;10.20;;;0.60;99.90;;;;;;5035479;28;20061;-75
2023/01/21 03:22:25;;;;;;;27.40;10.73;;;0.50;99.90;;;;;;5058425;28;20036;-75
2023/01/21 03:24:53;;;;;;;30.48;11.55;;;0.50;99.90;;;;;;5056204;28;20032;-70
2023/01/21 03:27:22;;;;;;;25.15;9.95;;;0.50;99.90;;;;;;5072589;28;20021;-70
2023/01/21 03:29:54;;;;;;;31.92;10.50;;;0.60;99.90;;;;;;5072610;28;20028;-70
2023/01/21 03:32:22;;;;;;;28.42;11.35;;;0.60;99.90;;;;;;5070398;28;20021;-70
2023/01/21 03:34:51;;;;;;;26.02;11.20;;;0.50;99.90;;;;;;5072431;28;20041;-70
2023/01/21 03:37:32;;;;;;;26.15;10.57;;;0.50;99.90;;;;;;5075358;28;20021;-70
2023/01/21 03:40:18;;;;;;;27.80;10.98;;;0.40;99.90;;;;;;5069995;28;20025;-70
2023/01/21 03:42:46;;;;;;;32.17;11.68;;;0.50;99.90;;;;;;5070258;28;20032;-74
2023/01/21 03:45:12;;;;;;;31.73;11.45;;;0.40;99.90;;;;;;5069772;28;20021;-75
2023/01/21 03:47:42;;;;;;;32.75;12.35;;;0.40;99.90;;;;;;5069136;28;20031;-75
2023/01/21 03:50:23;;;;;;;28.58;11.45;;;0.30;99.90;;;;;;5068623;28;20211;-72
2023/01/21 03:52:48;;;;;;;28.80;11.55;;;0.30;99.90;;;;;;5069259;28;20029;-72
2023/01/21 03:55:15;;;;;;;33.80;12.75;;;0.30;99.90;;;;;;5068663;28;20021;-72
2023/01/21 03:57:41;;;;;;;33.75;11.80;;;0.40;99.90;;;;;;5068737;28;20031;-70
2023/01/21 04:00:07;;;;;;;28.42;11.90;;;0.30;99.90;;;;;;5068761;28;20119;-70
2023/01/21 04:02:33;;;;;;;31.45;11.48;;;0.20;99.90;;;;;;5053077;28;20057;-70
2023/01/21 04:04:58;;;;;;;24.75;11.02;;;0.20;99.90;;;;;;5069640;28;20090;-70
2023/01/21 04:07:24;;;;;;;28.23;12.00;;;0.30;99.90;;;;;;5068698;28;20400;-70
2023/01/21 04:09:50;;;;;;;27.77;10.70;;;0.30;99.90;;;;;;5068540;28;20376;-70
2023/01/21 04:12:16;;;;;;;32.28;12.20;;;0.30;99.90;;;;;;5068896;28;20108;-70
2023/01/21 04:14:41;;;;;;;30.88;11.20;;;0.20;99.90;;;;;;5068869;28;20025;-70
2023/01/21 04:17:07;;;;;;;25.08;10.60;;;0.20;99.90;;;;;;5068447;28;20128;-70
2023/01/21 04:19:33;;;;;;;24.92;10.30;;;0.30;99.90;;;;;;5074890;28;20040;-70
2023/01/21 04:21:59;;;;;;;27.17;10.68;;;0.30;99.90;;;;;;5068380;28;20112;-70
2023/01/21 04:24:24;;;;;;;31.60;11.40;;;0.20;99.90;;;;;;5053190;28;20036;-70
2023/01/21 04:26:50;;;;;;;33.70;11.25;;;0.20;99.90;;;;;;5069362;28;20021;-70
2023/01/21 04:29:16;;;;;;;32.58;12.60;;;0.20;99.90;;;;;;5068251;28;20098;-70
2023/01/21 04:31:42;;;;;;;28.65;11.05;;;0.20;99.90;;;;;;5052993;28;20017;-74
2023/01/21 04:34:07;;;;;;;30.90;11.05;;;0.10;99.90;;;;;;5068959;28;20025;-70
2023/01/21 04:36:33;;;;;;;29.35;11.18;;;0.10;99.90;;;;;;5068884;28;20068;-70
2023/01/21 04:38:58;;;;;;;29.48;10.93;;;0.00;99.90;;;;;;5067967;28;20017;-70
2023/01/21 04:41:24;;;;;;;33.95;11.80;;;-0.10;99.90;;;;;;5068084;28;20044;-70
2023/01/21 04:43:49;;;;;;;29.63;11.63;;;-0.10;99.90;;;;;;5068828;28;20025;-70
2023/01/21 04:46:15;;;;;;;27.73;11.38;;;-0.10;99.90;;;;;;5069043;28;20106;-70
2023/01/21 04:48:40;;;;;;;30.27;11.30;;;-0.30;99.90;;;;;;5068434;28;20040;-70
2023/01/21 04:51:06;;;;;;;28.75;10.95;;;-0.40;99.90;;;;;;5052435;28;20033;-71
2023/01/21 04:53:32;;;;;;;24.27;10.23;;;-0.30;99.90;;;;;;5071287;28;20021;-70
2023/01/21 04:55:57;;;;;;;28.52;10.40;;;-0.30;99.90;;;;;;5056610;28;20025;-70
2023/01/21 04:58:23;;;;;;;34.58;12.10;;;-0.30;99.90;;;;;;5072128;28;20530;-70
2023/01/21 05:00:48;;;;;;;34.03;11.73;;;-0.30;99.90;;;;;;5072162;28;20430;-70
2023/01/21 05:03:14;;;;;;;25.40;10.88;;;-0.30;99.90;;;;;;5056732;28;20025;-70
2023/01/21 05:05:40;;;;;;;28.90;11.32;;;-0.30;99.90;;;;;;5071869;28;20047;-70
2023/01/21 05:08:06;;;;;;;25.92;9.75;;;-0.30;99.90;;;;;;5056260;28;20029;-70
2023/01/21 05:10:31;;;;;;;23.27;10.32;;;-0.30;99.90;;;;;;5054828;28;20032;-70
2023/01/21 05:12:58;;;;;;;30.10;10.50;;;-0.30;99.90;;;;;;5071694;28;20025;-70
2023/01/21 05:15:23;;;;;;;28.40;10.65;;;-0.50;99.90;;;;;;5072575;28;20025;-70
2023/01/21 05:17:49;;;;;;;24.02;9.45;;;-0.30;99.90;;;;;;5071618;28;20108;-70
2023/01/21 05:20:15;;;;;;;23.05;9.55;;;-0.30;99.90;;;;;;5039497;28;20120;-70
2023/01/21 05:22:40;;;;;;;23.45;10.48;;;-0.30;99.90;;;;;;5041661;28;20116;-70
2023/01/21 05:25:06;;;;;;;23.02;9.43;;;-0.20;99.90;;;;;;5038708;28;20159;-70
2023/01/21 05:27:34;;;;;;;31.67;9.63;;;-0.30;99.90;;;;;;5046006;28;20029;-71
2023/01/21 05:30:00;;;;;;;25.13;10.23;;;-0.40;99.90;;;;;;5034589;28;20035;-70
2023/01/21 05:32:25;;;;;;;27.73;10.48;;;-0.40;99.90;;;;;;5034982;28;20014;-69
2023/01/21 05:34:51;;;;;;;29.73;9.88;;;-0.60;99.90;;;;;;5035726;28;20029;-71
2023/01/21 05:37:16;;;;;;;26.25;9.38;;;-0.60;99.90;;;;;;5034559;28;20026;-70
2023/01/21 05:39:42;;;;;;;29.70;10.32;;;-0.50;99.90;;;;;;5052280;28;20032;-70
2023/01/21 05:42:08;;;;;;;26.85;10.52;;;-0.70;99.90;;;;;;5055578;28;20028;-70
2023/01/21 05:44:33;;;;;;;25.85;10.27;;;-0.70;99.90;;;;;;5042107;28;20044;-70
2023/01/21 05:46:59;;;;;;;25.45;9.13;;;-0.60;99.90;;;;;;5047773;28;20029;-70
2023/01/21 05:49:24;;;;;;;25.40;10.23;;;-0.60;99.90;;;;;;5038073;28;20025;-70
2023/01/21 05:51:50;;;;;;;31.15;9.63;;;-0.50;99.90;;;;;;5053121;28;20075;-70
2023/01/21 05:54:15;;;;;;;29.30;9.13;;;-0.60;99.90;;;;;;5070561;28;20117;-70
2023/01/21 05:56:41;;;;;;;25.42;9.65;;;-0.50;99.90;;;;;;5059425;28;20027;-71
2023/01/21 05:59:08;;;;;;;21.35;9.13;;;-0.60;99.90;;;;;;5050752;28;20018;-70
2023/01/21 06:01:33;;;;;;;23.98;9.30;;;-0.60;99.90;;;;;;5066558;28;20028;-72
2023/01/21 06:03:59;;;;;;;24.55;9.05;;;-0.50;99.90;;;;;;5061071;28;20021;-70
2023/01/21 06:06:24;;;;;;;26.33;9.50;;;-0.60;99.90;;;;;;5065152;28;20025;-70
2023/01/21 06:08:50;;;;;;;22.63;9.25;;;-0.50;99.90;;;;;;5048684;28;20014;-71
2023/01/21 06:11:15;;;;;;;28.83;9.90;;;-0.50;99.90;;;;;;5050124;28;20021;-70
2023/01/21 06:13:41;;;;;;;23.58;9.07;;;-0.60;99.90;;;;;;5050133;28;20026;-70
2023/01/21 06:16:06;;;;;;;20.35;7.78;;;-0.60;99.90;;;;;;5035205;28;20044;-70
2023/01/21 06:18:32;;;;;;;24.48;10.07;;;-0.70;99.90;;;;;;5066410;28;20021;-70
2023/01/21 06:20:59;;;;;;;23.60;9.68;;;-0.70;99.90;;;;;;5061810;28;20183;-70
2023/01/21 06:23:24;;;;;;;21.33;9.10;;;-0.80;99.90;;;;;;5034328;28;20111;-71
2023/01/21 06:25:50;;;;;;;23.58;9.65;;;-0.80;99.90;;;;;;5050362;28;20116;-70
2023/01/21 06:28:15;;;;;;;26.58;9.80;;;-0.80;99.90;;;;;;5056923;28;20372;-70
2023/01/21 06:30:41;;;;;;;20.67;8.68;;;-0.80;99.90;;;;;;5046153;28;20434;-70
2023/01/21 06:33:06;;;;;;;23.63;8.52;;;-0.80;99.90;;;;;;5069872;28;20048;-70
2023/01/21 06:35:32;;;;;;;25.17;9.93;;;-0.70;99.90;;;;;;5055065;28;20028;-70
2023/01/21 06:37:58;;;;;;;24.67;9.80;;;-0.70;99.90;;;;;;5070336;28;20025;-70
2023/01/21 06:40:24;;;;;;;25.65;9.50;;;-0.70;99.90;;;;;;5054378;28;20545;-69
2023/01/21 06:42:50;;;;;;;24.20;9.02;;;-0.80;99.90;;;;;;5069719;28;20028;-70
2023/01/21 06:45:16;;;;;;;22.23;9.60;;;-0.70;99.90;;;;;;5049864;28;20028;-70
2023/01/21 06:47:43;;;;;;;23.35;9.70;;;-0.70;99.90;;;;;;5059348;28;20060;-72
2023/01/21 06:50:15;;;;;;;23.13;9.60;;;-0.60;99.90;;;;;;5048905;28;20056;-70
2023/01/21 06:52:46;;;;;;;20.55;8.73;;;-0.60;99.90;;;;;;5057685;28;20021;-70
2023/01/21 06:55:12;;;;;;;23.58;9.40;;;-0.60;99.90;;;;;;5041294;28;20028;-70
2023/01/21 06:57:38;;;;;;;27.15;10.27;;;-0.50;99.90;;;;;;5069733;28;20070;-69
2023/01/21 07:00:06;;;;;;;22.85;8.93;;;-0.40;99.90;;;;;;5070571;28;20029;-69
2023/01/21 07:02:31;;;;;;;21.92;8.93;;;-0.40;99.90;;;;;;5053901;28;20029;-70
2023/01/21 07:04:57;;;;;;;25.38;10.05;;;-0.40;99.90;;;;;;5053276;28;20051;-70
2023/01/21 07:07:22;;;;;;;23.50;9.38;;;-0.40;99.90;;;;;;5053978;28;20502;-70
2023/01/21 07:09:48;;;;;;;24.58;10.07;;;-0.30;99.90;;;;;;5053899;28;20480;-71
2023/01/21 07:12:13;;;;;;;20.95;8.90;;;-0.20;99.90;;;;;;5069957;28;20036;-71
2023/01/21 07:14:39;;;;;;;24.35;9.57;;;-0.20;99.90;;;;;;5052857;28;20017;-71
2023/01/21 07:17:04;;;;;;;24.27;10.50;;;-0.20;99.90;;;;;;5051875;28;20025;-71
2023/01/21 07:19:32;;;;;;;23.60;9.27;;;-0.10;99.90;;;;;;5070392;28;20124;-71
2023/01/21 07:21:58;;;;;;;21.08;8.45;;;-0.10;99.90;;;;;;5069488;28;20056;-70
2023/01/21 07:24:23;;;;;;;23.40;9.15;;;0.00;99.90;;;;;;5073271;22;20064;-71
2023/01/21 07:26:49;;;;;;;25.52;10.15;;;-0.10;99.90;;;;;;5049425;28;20472;-74
2023/01/21 07:29:15;;;;;;;23.98;9.75;;;-0.10;99.90;;;;;;5048636;28;20057;-72
2023/01/21 07:31:41;;;;;;;25.63;9.85;;;-0.20;99.90;;;;;;5032536;28;20022;-73
2023/01/21 07:34:06;;;;;;;22.00;9.40;;;-0.20;99.90;;;;;;5032518;28;20087;-73
2023/01/21 07:36:32;;;;;;;27.08;10.10;;;0.00;99.90;;;;;;5033225;28;20021;-73
2023/01/21 07:38:58;;;;;;;25.40;10.40;;;0.10;99.90;;;;;;5023048;28;20053;-71
2023/01/21 07:41:23;;;;;;;23.88;9.88;;;0.10;99.90;;;;;;5026703;28;20075;-72
2023/01/21 07:43:50;;;;;;;30.05;10.55;;;0.20;99.90;;;;;;5012242;28;20420;-73
2023/01/21 07:46:17;;;;;;;20.33;8.60;;;0.10;99.90;;;;;;5013337;28;20041;-73
2023/01/21 07:48:42;;;;;;;24.10;9.50;;;0.20;99.90;;;;;;5013842;28;20026;-73
2023/01/21 07:51:08;;;;;;;25.80;9.10;;;0.20;99.90;;;;;;5012844;28;20056;-73
2023/01/21 07:54:02;;;;;;;27.95;10.18;;;0.20;99.90;;;;;;5013337;28;20018;-73
2023/01/21 07:56:28;;;;;;;28.92;10.10;;;0.30;99.90;;;;;;5012173;28;20018;-73
2023/01/21 07:58:53;;;;;;;20.40;9.15;;;0.30;99.90;;;;;;5012218;28;20029;-73
2023/01/21 08:01:19;;;;;;;22.92;9.05;;;0.40;99.90;;;;;;5013328;28;20037;-73
2023/01/21 08:03:45;;;;;;;27.50;10.55;;;0.40;99.90;;;;;;5013683;28;20036;-72
2023/01/21 08:06:10;;;;;;;25.80;10.23;;;0.40;99.90;;;;;;5012264;28;20034;-72
2023/01/21 08:08:36;;;;;;;24.45;10.23;;;0.40;99.90;;;;;;5012199;28;20041;-73
2023/01/21 08:11:01;;;;;;;21.73;8.68;;;0.40;99.90;;;;;;5013086;28;20026;-73
2023/01/21 08:13:27;;;;;;;24.98;9.32;;;0.50;99.90;;;;;;5012310;28;20022;-73
2023/01/21 08:15:54;;;;;;;28.27;9.73;;;0.50;99.90;;;;;;5011700;28;20026;-72
2023/01/21 08:18:21;;;;;;;26.08;9.48;;;0.50;99.90;;;;;;5012794;28;20030;-73
2023/01/21 08:20:47;;;;;;;25.98;9.45;;;0.50;99.90;;;;;;5013157;28;20041;-73
2023/01/21 08:23:13;;;;;;;26.17;10.77;;;0.50;99.90;;;;;;5012459;28;20030;-73
2023/01/21 08:25:38;;;;;;;27.45;9.50;;;0.50;99.90;;;;;;5011965;28;20731;-73
2023/01/21 08:28:04;;;;;;;23.48;11.02;;;0.60;99.90;;;;;;5015537;28;20029;-72
2023/01/21 08:30:30;;;;;;;22.38;9.57;;;0.50;99.90;;;;;;5015708;28;20120;-73
2023/01/21 08:32:55;;;;;;;25.83;9.52;;;0.60;99.90;;;;;;5015605;28;20384;-74
2023/01/21 08:35:21;;;;;;;26.15;10.10;;;0.60;99.90;;;;;;5015588;28;20084;-74
2023/01/21 08:37:47;;;;;;;29.58;9.98;;;0.70;99.90;;;;;;5016593;28;20480;-74
2023/01/21 08:40:12;;;;;;;25.75;9.93;;;0.60;99.90;;;;;;5015666;28;20033;-74
2023/01/21 08:42:38;;;;;;;24.40;10.60;;;0.70;99.90;;;;;;5032066;28;20038;-73
2023/01/21 08:45:04;;;;;;;30.83;10.95;;;0.80;99.90;;;;;;5015383;28;20052;-73
2023/01/21 08:47:30;;;;;;;33.13;11.75;;;0.80;99.90;;;;;;5015439;28;20083;-72
2023/01/21 08:49:55;;;;;;;28.90;9.70;;;1.00;99.90;;;;;;5015737;28;20077;-73
2023/01/21 08:52:21;;;;;;;29.40;10.73;;;1.00;99.90;;;;;;5019289;28;20018;-72
2023/01/21 08:54:47;;;;;;;26.20;10.60;;;1.00;99.90;;;;;;5034918;28;20079;-72
2023/01/21 08:57:12;;;;;;;29.00;10.88;;;1.00;99.90;;;;;;5023990;28;20021;-72
2023/01/21 08:59:38;;;;;;;27.80;11.77;;;1.00;99.90;;;;;;5035380;28;20036;-72
2023/01/21 09:02:03;;;;;;;26.52;10.20;;;0.90;99.90;;;;;;5023265;28;20034;-73
2023/01/21 09:04:29;;;;;;;30.20;12.02;;;0.80;99.90;;;;;;5023201;28;20017;-73
2023/01/21 09:06:54;;;;;;;29.50;11.10;;;0.80;99.90;;;;;;5034835;28;20037;-73
2023/01/21 09:09:20;;;;;;;30.13;10.70;;;0.80;99.90;;;;;;5035974;28;20025;-73
2023/01/21 09:11:46;;;;;;;23.58;8.77;;;0.80;99.90;;;;;;5034801;28;20392;-74
2023/01/21 09:14:11;;;;;;;26.05;9.85;;;0.90;99.90;;;;;;5036242;28;20022;-73
2023/01/21 09:16:37;;;;;;;25.85;9.05;;;1.00;99.90;;;;;;5035003;28;20029;-74
2023/01/21 09:19:02;;;;;;;20.55;9.23;;;1.00;99.90;;;;;;5034663;28;20028;-74
2023/01/21 09:21:28;;;;;;;21.27;9.88;;;1.00;99.90;;;;;;5035855;28;20040;-74
2023/01/21 09:23:54;;;;;;;23.85;8.93;;;1.10;99.90;;;;;;5035009;28;20025;-74
2023/01/21 09:26:22;;;;;;;23.50;10.07;;;1.20;99.90;;;;;;5034466;28;20167;-74
2023/01/21 09:28:55;;;;;;;24.65;9.60;;;1.00;99.90;;;;;;5034571;28;20477;-74
2023/01/21 09:31:22;;;;;;;22.50;8.80;;;1.10;99.90;;;;;;5034361;28;20025;-74
2023/01/21 09:33:54;;;;;;;21.30;8.07;;;1.00;99.90;;;;;;5034580;28;20040;-74
2023/01/21 09:36:23;;;;;;;20.77;8.27;;;1.10;99.90;;;;;;5034281;28;20049;-74
2023/01/21 09:38:50;;;;;;;23.20;7.85;;;1.20;99.90;;;;;;5034560;28;20065;-74
2023/01/21 09:41:24;;;;;;;19.00;7.93;;;1.30;99.90;;;;;;5034621;28;20029;-74
2023/01/21 09:44:04;;;;;;;19.70;7.55;;;1.10;99.90;;;;;;5035691;28;20040;-74
2023/01/21 09:46:40;;;;;;;15.70;7.22;;;1.00;99.90;;;;;;5035489;28;20030;-74
2023/01/21 09:49:28;;;;;;;19.77;8.95;;;1.10;99.90;;;;;;5033991;28;20028;-74
2023/01/21 09:52:29;;;;;;;20.52;8.15;;;1.10;99.90;;;;;;5035384;28;20013;-74
2023/01/21 09:54:56;;;;;;;18.77;8.57;;;1.20;99.90;;;;;;5033835;28;20026;-73
2023/01/21 09:58:00;;;;;;;18.98;8.20;;;1.20;99.90;;;;;;5035182;28;20025;-73
2023/01/21 10:00:39;;;;;;;15.38;7.20;;;1.30;99.90;;;;;;5035397;28;20542;-72
2023/01/21 10:03:16;;;;;;;19.73;8.38;;;1.30;99.90;;;;;;5033897;28;20025;-73
2023/01/21 10:06:00;;;;;;;19.58;7.88;;;1.40;99.90;;;;;;5034677;28;20095;-73
2023/01/21 10:08:51;;;;;;;18.23;7.70;;;1.50;99.90;;;;;;5033713;28;20021;-73
2023/01/21 10:11:41;;;;;;;17.77;6.87;;;1.60;99.90;;;;;;5034999;28;20025;-73
2023/01/21 10:14:27;;;;;;;20.38;8.13;;;1.70;99.90;;;;;;5035488;28;20033;-73
2023/01/21 10:17:10;;;;;;;20.60;7.65;;;1.60;99.90;;;;;;5033886;28;20041;-73
2023/01/21 10:19:47;;;;;;;14.32;6.50;;;1.50;99.90;;;;;;5033705;28;20120;-74
2023/01/21 10:22:17;;;;;;;17.95;7.10;;;1.50;99.90;;;;;;5034954;28;20029;-74
2023/01/21 10:25:09;;;;;;;20.45;7.30;;;1.60;99.90;;;;;;5034782;28;20038;-73
2023/01/21 10:27:37;;;;;;;14.63;7.05;;;1.60;99.90;;;;;;5033665;28;20103;-73
2023/01/21 10:30:19;;;;;;;20.58;7.88;;;1.40;99.90;;;;;;5034493;28;20033;-73
2023/01/21 10:32:48;;;;;;;19.05;7.90;;;1.50;99.90;;;;;;5034969;28;20477;-73
2023/01/21 10:35:23;;;;;;;18.35;7.65;;;1.50;99.90;;;;;;5034566;28;20033;-73
2023/01/21 10:38:05;;;;;;;16.83;7.05;;;1.50;99.90;;;;;;5034543;28;20021;-73
2023/01/21 10:40:47;;;;;;;19.25;6.88;;;1.60;99.90;;;;;;5033316;28;20369;-73
2023/01/21 10:43:37;;;;;;;21.95;8.15;;;1.50;99.90;;;;;;5034039;28;20048;-73
2023/01/21 10:46:09;;;;;;;17.52;8.07;;;1.60;99.90;;;;;;5033063;28;20032;-73
2023/01/21 10:48:39;;;;;;;17.55;7.07;;;1.40;99.90;;;;;;5034502;28;20022;-73
2023/01/21 10:51:22;;;;;;;16.92;6.38;;;1.50;99.90;;;;;;5033568;28;20021;-73
2023/01/21 10:53:56;;;;;;;22.00;6.97;;;1.60;99.90;;;;;;5034178;28;20053;-73
2023/01/21 10:57:10;;;;;;;15.52;6.60;;;1.60;99.90;;;;;;5034168;28;20026;-73
2023/01/21 10:59:37;;;;;;;15.25;7.20;;;1.70;99.90;;;;;;5032882;28;20112;-73
2023/01/21 11:02:08;;;;;;;16.50;7.13;;;1.60;99.90;;;;;;5032660;28;20030;-73
2023/01/21 11:04:38;;;;;;;17.40;7.13;;;1.60;99.90;;;;;;5033804;28;20025;-73
2023/01/21 11:07:06;;;;;;;15.57;7.15;;;1.70;99.90;;;;;;5033116;28;20091;-73
2023/01/21 11:09:37;;;;;;;18.83;7.13;;;1.70;99.90;;;;;;5033737;28;20088;-73
2023/01/21 11:12:03;;;;;;;16.57;6.60;;;1.60;99.90;;;;;;5032736;28;20171;-73
2023/01/21 11:14:28;;;;;;;15.10;7.03;;;1.50;99.90;;;;;;5032504;28;20132;-72
2023/01/21 11:16:54;;;;;;;17.38;6.85;;;1.60;99.90;;;;;;5033745;28;20029;-73
2023/01/21 11:19:25;;;;;;;11.68;5.93;;;1.60;99.90;;;;;;5032495;28;20033;-73
2023/01/21 11:21:59;;;;;;;12.50;5.97;;;1.50;99.90;;;;;;5032387;28;20029;-73
2023/01/21 11:24:26;;;;;;;13.45;6.05;;;1.40;99.90;;;;;;5033575;28;20468;-73
2023/01/21 11:26:57;;;;;;;11.32;5.38;;;1.50;99.90;;;;;;5032438;28;20021;-73
2023/01/21 11:29:24;;;;;;;12.18;5.97;;;1.50;99.90;;;;;;5034150;28;20485;-73
2023/01/21 11:32:00;;;;;;;11.38;5.85;;;1.60;99.90;;;;;;5033382;28;20037;-73
2023/01/21 11:34:26;;;;;;;12.05;5.07;;;1.50;99.90;;;;;;5032313;28;20022;-73
2023/01/21 11:37:01;;;;;;;10.55;5.38;;;1.60;99.90;;;;;;5033671;28;20022;-73
2023/01/21 11:39:45;;;;;;;12.55;5.72;;;1.60;99.90;;;;;;5032146;28;20029;-73
2023/01/21 11:42:14;;;;;;;11.05;5.38;;;1.50;99.90;;;;;;5033520;28;20025;-73
2023/01/21 11:45:05;;;;;;;9.93;4.90;;;1.30;99.90;;;;;;5032017;28;20052;-73
2023/01/21 11:47:36;;;;;;;12.88;5.20;;;1.30;99.90;;;;;;5032414;28;20029;-73
2023/01/21 11:50:25;;;;;;;13.27;5.70;;;1.50;99.90;;;;;;5031963;28;20029;-73
2023/01/21 11:53:12;;;;;;;11.85;4.78;;;1.60;99.90;;;;;;5033284;28;20053;-74
2023/01/21 11:55:45;;;;;;;9.27;4.35;;;1.60;99.90;;;;;;5032204;28;20022;-73
2023/01/21 11:58:25;;;;;;;10.90;5.00;;;1.40;99.90;;;;;;5032111;28;20021;-73
2023/01/21 12:00:53;;;;;;;13.55;5.63;;;1.40;99.90;;;;;;5031880;28;20061;-74
2023/01/21 12:03:23;;;;;;;8.85;5.22;;;1.60;99.90;;;;;;5031413;28;20036;-72
2023/01/21 12:05:51;;;;;;;9.80;4.32;;;1.70;99.90;;;;;;5032955;28;20033;-72
2023/01/21 12:08:30;;;;;;;9.70;5.20;;;1.70;99.90;;;;;;5033354;28;20053;-72
2023/01/21 12:11:00;;;;;;;11.73;5.32;;;1.70;99.90;;;;;;5032985;28;20029;-72
2023/01/21 12:14:19;;;;;;;9.63;4.65;;;1.60;99.90;;;;;;5033104;28;20021;-71
2023/01/21 12:17:00;;;;;;;11.70;5.00;;;1.40;99.90;;;;;;5014522;28;20076;-70
2023/01/21 12:19:25;;;;;;;10.85;4.60;;;1.40;99.90;;;;;;5014660;28;20030;-71
2023/01/21 12:22:18;;;;;;;11.43;5.15;;;1.40;99.90;;;;;;5014317;28;20025;-71
2023/01/21 12:24:58;;;;;;;10.88;5.18;;;1.40;99.90;;;;;;5014160;28;20048;-71
2023/01/21 12:27:50;;;;;;;9.27;4.43;;;1.50;99.90;;;;;;5030765;28;20097;-72
2023/01/21 12:30:15;;;;;;;10.70;4.60;;;1.60;99.90;;;;;;5014742;28;20029;-72
2023/01/21 12:32:50;;;;;;;8.98;4.53;;;1.60;99.90;;;;;;5014124;28;20319;-72
2023/01/21 12:35:23;;;;;;;11.13;4.10;;;1.60;99.90;;;;;;5030520;28;20018;-72
2023/01/21 12:37:51;;;;;;;9.02;3.97;;;1.50;99.90;;;;;;5030879;28;20088;-72
2023/01/21 12:41:07;;;;;;;9.00;3.95;;;1.40;99.90;;;;;;5030625;28;20104;-72
2023/01/21 12:43:49;;;;;;;7.20;3.42;;;1.60;99.90;;;;;;4975008;28;20065;-72
2023/01/21 12:46:31;;;;;;;12.65;4.75;;;1.70;99.90;;;;;;4974974;28;20034;-72
2023/01/21 12:49:19;;;;;;;7.40;4.22;;;1.90;99.90;;;;;;4975523;28;20030;-72
2023/01/21 12:51:55;;;;;;;11.95;4.35;;;1.90;99.90;;;;;;4993069;28;20030;-72
2023/01/21 12:54:42;;;;;;;7.15;3.92;;;1.90;99.90;;;;;;4994227;28;20444;-71
2023/01/21 12:57:22;;;;;;;8.10;4.07;;;2.10;99.90;;;;;;4994931;28;20115;-71
2023/01/21 13:00:02;;;;;;;9.45;3.95;;;2.10;99.90;;;;;;4994459;28;20112;-72
2023/01/21 13:02:51;;;;;;;10.93;5.38;;;2.20;99.90;;;;;;4994495;28;20062;-73